createdAt,value
2023-05-11T00:01:28.525Z,2.67
2023-05-11T00:03:56.390Z,2.60
2023-05-11T00:06:23.837Z,2.42
2023-05-11T00:08:50.785Z,3.07
2023-05-11T00:11:18.881Z,3.23
2023-05-11T00:13:46.320Z,2.30
2023-05-11T00:16:13.555Z,2.80
2023-05-11T00:18:41.321Z,3.30
2023-05-11T00:21:08.624Z,2.78
2023-05-11T00:23:35.747Z,3.47
2023-05-11T00:26:03.626Z,3.70
2023-05-11T00:28:30.676Z,2.97
2023-05-11T00:30:58.435Z,3.00
2023-05-11T00:33:26.134Z,2.70
2023-05-11T00:35:53.294Z,3.07
2023-05-11T00:38:20.468Z,3.17
2023-05-11T00:40:49.939Z,2.80
2023-05-11T00:43:17.245Z,3.03
2023-05-11T00:45:48.038Z,3.03
2023-05-11T00:48:16.418Z,3.10
2023-05-11T00:50:43.615Z,3.17
2023-05-11T00:53:11.629Z,3.43
2023-05-11T00:55:38.854Z,3.00
2023-05-11T00:58:06.127Z,2.83
2023-05-11T01:00:33.409Z,2.60
2023-05-11T01:03:02.441Z,3.57
2023-05-11T01:05:51.985Z,3.00
2023-05-11T01:08:32.288Z,2.85
2023-05-11T01:11:39.779Z,3.10
2023-05-11T01:14:20.468Z,3.20
2023-05-11T01:16:55.356Z,2.67
2023-05-11T01:19:44.756Z,2.73
2023-05-11T01:22:26.879Z,2.83
2023-05-11T01:25:12.174Z,2.77
2023-05-11T01:28:31.661Z,3.03
2023-05-11T01:31:11.806Z,3.10
2023-05-11T01:33:58.393Z,2.90
2023-05-11T01:36:30.110Z,2.93
2023-05-11T01:39:03.113Z,3.20
2023-05-11T01:41:31.953Z,2.80
2023-05-11T01:44:04.388Z,2.50
2023-05-11T01:46:34.114Z,2.80
2023-05-11T01:49:07.122Z,2.77
2023-05-11T01:51:38.454Z,2.97
2023-05-11T01:54:10.671Z,2.70
2023-05-11T01:56:43.377Z,2.53
2023-05-11T01:59:12.130Z,2.90
2023-05-11T02:01:41.021Z,3.30
2023-05-11T02:04:10.027Z,2.80
2023-05-11T02:06:39.452Z,3.33
2023-05-11T02:09:10.150Z,2.90
2023-05-11T02:11:40.424Z,2.07
2023-05-11T02:14:10.417Z,3.10
2023-05-11T02:16:38.687Z,2.87
2023-05-11T02:19:09.322Z,3.10
2023-05-11T02:21:38.085Z,3.17
2023-05-11T02:24:08.365Z,3.27
2023-05-11T02:26:35.711Z,2.53
2023-05-11T02:29:02.871Z,3.33
2023-05-11T02:31:32.629Z,2.63
2023-05-11T02:34:19.069Z,3.43
2023-05-11T02:36:49.212Z,2.90
2023-05-11T02:39:23.985Z,2.90
2023-05-11T02:41:58.305Z,2.80
2023-05-11T02:44:36.218Z,2.60
2023-05-11T02:47:06.514Z,2.93
2023-05-11T02:49:37.508Z,3.30
2023-05-11T02:52:05.268Z,3.10
2023-05-11T02:54:34.040Z,2.93
2023-05-11T02:57:01.702Z,3.20
2023-05-11T02:59:30.300Z,3.07
2023-05-11T03:01:58.227Z,3.10
2023-05-11T03:04:25.627Z,3.10
2023-05-11T03:06:52.773Z,2.83
2023-05-11T03:09:19.775Z,3.00
2023-05-11T03:11:47.466Z,2.97
2023-05-11T03:14:15.358Z,3.90
2023-05-11T03:16:42.642Z,2.97
2023-05-11T03:19:10.548Z,3.30
2023-05-11T03:21:39.654Z,2.87
2023-05-11T03:24:08.079Z,2.93
2023-05-11T03:26:36.435Z,2.90
2023-05-11T03:29:04.177Z,3.30
2023-05-11T03:31:31.360Z,3.10
2023-05-11T03:33:58.770Z,3.70
2023-05-11T03:36:27.051Z,2.70
2023-05-11T03:38:57.012Z,3.30
2023-05-11T03:41:26.071Z,3.40
2023-05-11T03:43:54.383Z,3.10
2023-05-11T03:46:23.797Z,2.93
2023-05-11T03:48:51.754Z,2.83
2023-05-11T03:51:19.588Z,2.80
2023-05-11T03:53:47.603Z,2.88
2023-05-11T03:56:14.667Z,3.80
2023-05-11T03:58:42.532Z,3.53
2023-05-11T04:01:10.123Z,3.20
2023-05-11T04:03:52.258Z,2.85
2023-05-11T04:06:20.217Z,3.15
2023-05-11T04:08:47.387Z,3.20
2023-05-11T04:11:14.474Z,3.50
2023-05-11T04:13:41.450Z,2.85
2023-05-11T04:16:08.945Z,3.38
2023-05-11T04:18:36.074Z,3.10
2023-05-11T04:21:03.192Z,3.17
2023-05-11T04:23:30.257Z,2.78
2023-05-11T04:25:57.375Z,3.45
2023-05-11T04:28:27.632Z,3.20
2023-05-11T04:30:56.626Z,3.30
2023-05-11T04:33:24.475Z,3.30
2023-05-11T04:35:53.482Z,2.80
2023-05-11T04:38:22.175Z,3.38
2023-05-11T04:40:50.789Z,3.05
2023-05-11T04:43:18.834Z,3.22
2023-05-11T04:45:52.671Z,3.30
2023-05-11T04:48:20.968Z,3.17
2023-05-11T04:50:48.202Z,2.88
2023-05-11T04:53:15.389Z,2.80
2023-05-11T04:55:42.396Z,3.50
2023-05-11T04:58:09.454Z,3.08
2023-05-11T05:00:36.768Z,2.85
2023-05-11T05:03:04.084Z,3.08
2023-05-11T05:05:31.169Z,3.47
2023-05-11T05:07:58.214Z,2.70
2023-05-11T05:10:25.488Z,2.95
2023-05-11T05:12:52.542Z,3.20
2023-05-11T05:15:19.749Z,3.05
2023-05-11T05:17:46.884Z,3.10
2023-05-11T05:20:13.913Z,3.38
2023-05-11T05:22:41.759Z,2.50
2023-05-11T05:25:09.736Z,2.63
2023-05-11T05:27:36.756Z,3.13
2023-05-11T05:30:04.249Z,2.45
2023-05-11T05:32:31.301Z,2.65
2023-05-11T05:34:58.322Z,2.78
2023-05-11T05:37:25.320Z,2.92
2023-05-11T05:39:52.301Z,2.47
2023-05-11T05:42:19.374Z,2.67
2023-05-11T05:44:46.577Z,3.13
2023-05-11T05:47:13.896Z,3.10
2023-05-11T05:49:40.937Z,3.25
2023-05-11T05:52:09.568Z,2.72
2023-05-11T05:54:36.673Z,2.85
2023-05-11T05:57:03.751Z,2.60
2023-05-11T05:59:30.727Z,2.35
2023-05-11T06:01:57.738Z,3.10
2023-05-11T06:04:24.806Z,2.88
2023-05-11T06:06:52.044Z,3.08
2023-05-11T06:09:19.196Z,3.00
2023-05-11T06:11:46.412Z,2.80
2023-05-11T06:14:13.394Z,2.55
2023-05-11T06:16:40.606Z,2.92
2023-05-11T06:19:09.281Z,2.50
2023-05-11T06:21:36.386Z,2.83
2023-05-11T06:24:03.712Z,2.78
2023-05-11T06:26:30.829Z,2.80
2023-05-11T06:28:57.897Z,2.58
2023-05-11T06:31:25.095Z,2.55
2023-05-11T06:33:52.349Z,2.25
2023-05-11T06:36:19.354Z,2.67
2023-05-11T06:38:46.414Z,2.80
2023-05-11T06:41:13.420Z,2.45
2023-05-11T06:43:40.457Z,2.53
2023-05-11T06:46:07.619Z,1.90
2023-05-11T06:48:34.621Z,2.40
2023-05-11T06:51:01.647Z,2.75
2023-05-11T06:53:28.603Z,2.28
2023-05-11T06:55:56.191Z,2.80
2023-05-11T06:58:23.260Z,2.25
2023-05-11T07:00:50.322Z,2.15
2023-05-11T07:03:17.476Z,2.53
2023-05-11T07:05:44.571Z,2.72
2023-05-11T07:08:11.637Z,2.10
2023-05-11T07:10:38.724Z,2.00
2023-05-11T07:13:05.922Z,2.00
2023-05-11T07:15:32.927Z,2.45
2023-05-11T07:18:01.508Z,1.98
2023-05-11T07:20:28.670Z,2.03
2023-05-11T07:22:59.586Z,2.10
2023-05-11T07:25:26.605Z,1.92
2023-05-11T07:27:53.583Z,2.03
2023-05-11T07:30:21.128Z,2.00
2023-05-11T07:32:48.880Z,1.83
2023-05-11T07:35:15.987Z,2.22
2023-05-11T07:37:43.170Z,2.03
2023-05-11T07:40:10.565Z,1.95
2023-05-11T07:42:37.548Z,1.95
2023-05-11T07:45:05.129Z,1.80
2023-05-11T07:47:33.646Z,1.77
2023-05-11T07:50:02.366Z,2.08
2023-05-11T07:52:29.324Z,1.77
2023-05-11T07:54:56.492Z,1.85
2023-05-11T07:57:23.519Z,2.30
2023-05-11T07:59:51.276Z,1.60
2023-05-11T08:02:19.197Z,2.00
2023-05-11T08:04:46.396Z,1.98
2023-05-11T08:07:13.868Z,1.65
2023-05-11T08:09:40.844Z,2.50
2023-05-11T08:12:07.898Z,1.70
2023-05-11T08:14:35.094Z,1.92
2023-05-11T08:17:02.159Z,1.60
2023-05-11T08:19:29.143Z,1.90
2023-05-11T08:21:56.147Z,1.88
2023-05-11T08:24:23.171Z,1.88
2023-05-11T08:26:50.209Z,2.20
2023-05-11T08:29:17.210Z,2.15
2023-05-11T08:31:44.218Z,2.25
2023-05-11T08:36:41.299Z,1.52
2023-05-11T08:39:08.317Z,2.35
2023-05-11T08:41:35.620Z,1.92
2023-05-11T08:44:03.921Z,2.05
2023-05-11T08:46:35.604Z,1.70
2023-05-11T08:49:02.828Z,2.20
2023-05-11T08:51:30.005Z,1.92
2023-05-11T08:53:58.789Z,2.08
2023-05-11T08:56:27.771Z,1.70
2023-05-11T08:58:58.344Z,1.80
2023-05-11T09:01:29.593Z,1.60
2023-05-11T09:03:58.273Z,1.85
2023-05-11T09:06:26.766Z,2.00
2023-05-11T09:08:55.181Z,2.22
2023-05-11T09:11:22.884Z,2.00
2023-05-11T09:13:50.375Z,1.67
2023-05-11T09:16:32.919Z,1.92
2023-05-11T09:19:04.145Z,2.15
2023-05-11T09:21:32.008Z,2.03
2023-05-11T09:24:00.732Z,2.15
2023-05-11T09:26:29.980Z,2.00
2023-05-11T09:31:44.218Z,1.77
2023-05-11T09:34:21.868Z,2.00
2023-05-11T09:36:54.739Z,1.60
2023-05-11T09:39:41.722Z,1.70
2023-05-11T09:42:22.129Z,1.75
2023-05-11T09:44:49.528Z,1.70
2023-05-11T09:47:22.467Z,2.10
2023-05-11T09:49:49.640Z,1.90
2023-05-11T09:52:18.693Z,1.88
2023-05-11T09:54:48.552Z,2.33
2023-05-11T09:57:29.151Z,2.17
2023-05-11T10:00:00.680Z,1.90
2023-05-11T10:02:30.246Z,1.92
2023-05-11T10:05:00.725Z,1.80
2023-05-11T10:07:32.333Z,2.20
2023-05-11T10:10:05.992Z,1.77
2023-05-11T10:12:34.611Z,1.88
2023-05-11T10:15:05.206Z,2.15
2023-05-11T10:17:33.178Z,1.80
2023-05-11T10:20:04.092Z,2.58
2023-05-11T10:22:31.873Z,1.90
2023-05-11T10:24:59.862Z,2.30
2023-05-11T10:27:28.008Z,1.88
2023-05-11T10:29:55.887Z,2.22
2023-05-11T10:32:22.991Z,1.55
2023-05-11T10:34:50.791Z,2.10
2023-05-11T10:37:18.296Z,1.85
2023-05-11T10:39:49.940Z,2.17
2023-05-11T10:43:08.623Z,1.80
2023-05-11T10:46:13.722Z,1.60
2023-05-11T10:49:12.423Z,1.90
2023-05-11T10:52:06.450Z,1.85
2023-05-11T10:55:01.126Z,1.80
2023-05-11T10:57:51.625Z,1.90
2023-05-11T11:01:18.633Z,2.25
2023-05-11T11:03:58.437Z,1.58
2023-05-11T11:06:25.960Z,1.65
2023-05-11T11:09:01.710Z,1.63
2023-05-11T11:11:36.883Z,2.33
2023-05-11T11:14:06.271Z,1.60
2023-05-11T11:16:34.762Z,1.85
2023-05-11T11:19:32.876Z,1.80
2023-05-11T11:22:02.127Z,1.90
2023-05-11T11:24:40.799Z,1.75
2023-05-11T11:27:09.487Z,1.98
2023-05-11T11:29:37.956Z,2.25
2023-05-11T11:32:20.223Z,1.63
2023-05-11T11:34:48.193Z,1.83
2023-05-11T11:37:16.927Z,2.20
2023-05-11T11:39:43.779Z,2.72
2023-05-11T11:42:31.185Z,1.88
2023-05-11T11:45:57.188Z,1.80
2023-05-11T11:48:37.887Z,2.17
2023-05-11T11:51:07.346Z,1.95
2023-05-11T11:53:37.547Z,1.60
2023-05-11T11:56:07.951Z,1.92
2023-05-11T11:58:43.538Z,1.77
2023-05-11T12:01:16.524Z,2.45
2023-05-11T12:03:54.161Z,2.35
2023-05-11T12:06:25.026Z,2.30
2023-05-11T12:08:53.644Z,2.22
2023-05-11T12:11:23.252Z,1.80
2023-05-11T12:13:50.868Z,1.83
2023-05-11T12:16:18.926Z,1.67
2023-05-11T12:19:01.132Z,1.80
2023-05-11T12:21:34.081Z,2.05
2023-05-11T12:24:04.428Z,1.70
2023-05-11T12:26:33.408Z,1.65
2023-05-11T12:29:16.185Z,2.17
2023-05-11T12:31:46.486Z,1.77
2023-05-11T12:34:18.785Z,2.38
2023-05-11T12:36:47.613Z,1.85
2023-05-11T12:39:23.224Z,1.95
2023-05-11T12:41:53.138Z,1.90
2023-05-11T12:44:22.460Z,2.00
2023-05-11T12:46:50.626Z,2.47
2023-05-11T12:51:59.446Z,1.80
2023-05-11T12:54:33.757Z,2.40
2023-05-11T12:57:03.031Z,1.65
2023-05-11T12:59:35.742Z,3.70
2023-05-11T13:02:09.987Z,1.75
2023-05-11T13:04:38.956Z,2.13
2023-05-11T13:07:06.041Z,1.90
2023-05-11T13:09:33.292Z,2.28
2023-05-11T13:12:18.517Z,2.05
2023-05-11T13:15:03.625Z,1.80
2023-05-11T13:17:33.552Z,1.92
2023-05-11T13:20:24.571Z,1.90
2023-05-11T13:23:01.942Z,2.15
2023-05-11T13:25:29.088Z,1.85
2023-05-11T13:27:56.092Z,1.58
2023-05-11T13:30:23.112Z,1.88
2023-05-11T13:32:50.224Z,2.15
2023-05-11T13:35:17.546Z,1.90
2023-05-11T13:37:46.497Z,2.10
2023-05-11T13:40:14.041Z,2.33
2023-05-11T13:42:42.098Z,1.95
2023-05-11T13:45:09.807Z,1.65
2023-05-11T13:47:37.190Z,1.98
2023-05-11T13:50:04.902Z,2.00
2023-05-11T13:52:31.926Z,1.85
2023-05-11T13:54:58.878Z,2.28
2023-05-11T13:57:25.853Z,1.80
2023-05-11T13:59:52.895Z,1.73
2023-05-11T14:02:19.954Z,2.17
2023-05-11T14:04:46.963Z,1.95
2023-05-11T14:07:15.349Z,1.90
2023-05-11T14:09:43.950Z,2.08
2023-05-11T14:12:10.912Z,1.58
2023-05-11T14:14:38.008Z,1.52
2023-05-11T14:17:05.913Z,2.22
2023-05-11T14:19:32.981Z,2.10
2023-05-11T14:22:00.185Z,1.95
2023-05-11T14:24:27.228Z,2.10
2023-05-11T14:26:54.710Z,2.10
2023-05-11T14:29:21.697Z,1.80
2023-05-11T14:31:49.000Z,1.95
2023-05-11T14:34:16.084Z,2.53
2023-05-11T14:36:43.086Z,2.03
2023-05-11T14:39:10.145Z,2.03
2023-05-11T14:41:37.391Z,1.98
2023-05-11T14:44:04.493Z,2.30
2023-05-11T14:46:31.722Z,2.00
2023-05-11T14:48:58.726Z,2.00
2023-05-11T14:51:25.815Z,1.75
2023-05-11T14:53:52.844Z,2.28
2023-05-11T14:56:20.254Z,1.92
2023-05-11T14:58:47.235Z,1.95
2023-05-11T15:01:14.198Z,2.08
2023-05-11T15:03:41.773Z,2.10
2023-05-11T15:06:08.853Z,2.47
2023-05-11T15:08:35.868Z,2.38
2023-05-11T15:11:03.008Z,1.80
2023-05-11T15:13:30.692Z,1.90
2023-05-11T15:15:57.943Z,2.30
2023-05-11T15:18:24.995Z,2.33
2023-05-11T15:20:51.990Z,1.83
2023-05-11T15:23:19.060Z,2.15
2023-05-11T15:25:47.331Z,1.90
2023-05-11T15:28:14.802Z,2.33
2023-05-11T15:30:42.245Z,2.10
2023-05-11T15:33:10.429Z,1.58
2023-05-11T15:35:38.203Z,1.92
2023-05-11T15:38:06.179Z,2.20
2023-05-11T15:40:33.346Z,1.92
2023-05-11T15:43:00.657Z,1.90
2023-05-11T15:45:28.899Z,2.28
2023-05-11T15:47:55.962Z,1.80
2023-05-11T15:50:23.038Z,2.40
2023-05-11T15:52:50.076Z,2.15
2023-05-11T15:55:17.159Z,1.98
2023-05-11T15:57:44.249Z,1.95
2023-05-11T16:00:12.714Z,2.22
2023-05-11T16:02:39.959Z,1.95
2023-05-11T16:05:07.403Z,1.77
2023-05-11T16:07:34.509Z,1.80
2023-05-11T16:10:01.753Z,2.05
2023-05-11T16:12:28.773Z,1.67
2023-05-11T16:14:55.948Z,1.90
2023-05-11T16:17:22.941Z,2.00
2023-05-11T16:19:49.964Z,2.10
2023-05-11T16:22:17.161Z,1.88
2023-05-11T16:24:44.448Z,1.77
2023-05-11T16:27:11.507Z,2.60
2023-05-11T16:29:38.560Z,1.98
2023-05-11T16:32:05.858Z,2.28
2023-05-11T16:34:35.193Z,2.00
2023-05-11T16:37:02.238Z,2.30
2023-05-11T16:39:29.309Z,1.77
2023-05-11T16:41:56.370Z,1.98
2023-05-11T16:44:24.728Z,2.03
2023-05-11T16:46:52.450Z,2.50
2023-05-11T16:49:19.631Z,2.13
2023-05-11T16:51:46.918Z,2.22
2023-05-11T16:54:14.060Z,2.00
2023-05-11T16:56:41.682Z,1.88
2023-05-11T16:59:10.159Z,1.70
2023-05-11T17:01:37.535Z,1.92
2023-05-11T17:04:05.113Z,1.92
2023-05-11T17:06:32.983Z,1.73
2023-05-11T17:09:00.041Z,2.05
2023-05-11T17:11:27.092Z,1.92
2023-05-11T17:13:54.068Z,2.00
2023-05-11T17:16:21.173Z,2.33
2023-05-11T17:18:48.212Z,1.85
2023-05-11T17:21:15.974Z,2.05
2023-05-11T17:23:43.731Z,2.38
2023-05-11T17:26:12.415Z,1.92
2023-05-11T17:28:40.269Z,1.80
2023-05-11T17:31:12.035Z,1.88
2023-05-11T17:33:40.178Z,2.20
2023-05-11T17:36:08.530Z,2.10
2023-05-11T17:38:36.275Z,2.30
2023-05-11T17:41:06.825Z,1.98
2023-05-11T17:43:35.476Z,1.98
2023-05-11T17:46:04.151Z,1.92
2023-05-11T17:48:32.464Z,2.13
2023-05-11T17:50:59.821Z,1.95
2023-05-11T17:53:27.401Z,1.90
2023-05-11T17:55:57.783Z,2.90
2023-05-11T17:58:24.777Z,2.33
2023-05-11T18:00:51.964Z,2.13
2023-05-11T18:03:19.243Z,1.90
2023-05-11T18:05:49.023Z,2.55
2023-05-11T18:08:16.875Z,2.13
2023-05-11T18:10:44.434Z,1.73
2023-05-11T18:13:11.483Z,2.30
2023-05-11T18:15:38.667Z,2.30
2023-05-11T18:18:05.764Z,2.25
2023-05-11T18:20:32.876Z,2.22
2023-05-11T18:23:00.051Z,2.17
2023-05-11T18:25:31.692Z,2.22
2023-05-11T18:28:02.436Z,2.70
2023-05-11T18:30:29.787Z,2.53
2023-05-11T18:32:58.420Z,2.05
2023-05-11T18:35:25.502Z,2.08
2023-05-11T18:37:52.571Z,2.72
2023-05-11T18:40:20.150Z,2.30
2023-05-11T18:42:47.442Z,2.25
2023-05-11T18:45:14.571Z,2.33
2023-05-11T18:47:46.352Z,2.30
2023-05-11T18:50:13.786Z,2.20
2023-05-11T18:52:40.850Z,2.53
2023-05-11T18:55:08.747Z,2.30
2023-05-11T18:57:35.955Z,2.55
2023-05-11T19:00:03.847Z,2.53
2023-05-11T19:02:31.954Z,2.22
2023-05-11T19:04:59.153Z,2.35
2023-05-11T19:07:26.108Z,2.80
2023-05-11T19:09:53.082Z,3.28
2023-05-11T19:12:20.045Z,3.10
2023-05-11T19:14:47.572Z,3.33
2023-05-11T19:17:14.740Z,3.53
2023-05-11T19:19:42.086Z,3.17
2023-05-11T19:22:09.472Z,2.97
2023-05-11T19:24:36.570Z,2.90
2023-05-11T19:27:07.895Z,2.95
2023-05-11T19:29:36.281Z,2.95
2023-05-11T19:32:03.652Z,3.08
2023-05-11T19:34:30.920Z,3.30
2023-05-11T19:36:57.951Z,3.20
2023-05-11T19:39:25.482Z,3.05
2023-05-11T19:41:53.075Z,3.38
2023-05-11T19:44:20.456Z,3.00
2023-05-11T19:46:47.741Z,3.20
2023-05-11T19:49:16.485Z,3.67
2023-05-11T19:51:43.885Z,3.38
2023-05-11T19:54:11.627Z,3.70
2023-05-11T19:56:39.371Z,4.00
2023-05-11T19:59:06.441Z,3.55
2023-05-11T20:01:33.850Z,3.60
2023-05-11T20:04:01.280Z,3.33
2023-05-11T20:06:28.742Z,4.57
2023-05-11T20:08:56.619Z,3.83
2023-05-11T20:11:25.266Z,4.35
2023-05-11T20:13:53.535Z,3.78
2023-05-11T20:16:20.686Z,3.97
2023-05-11T20:18:47.988Z,4.53
2023-05-11T20:21:16.703Z,4.15
2023-05-11T20:23:44.234Z,4.05
2023-05-11T20:26:11.325Z,4.07
2023-05-11T20:28:39.748Z,4.10
2023-05-11T20:31:07.004Z,4.65
2023-05-11T20:36:04.690Z,3.72
2023-05-11T20:38:31.681Z,4.53
2023-05-11T20:40:59.027Z,4.60
2023-05-11T20:43:26.151Z,4.88
2023-05-11T20:45:54.706Z,4.00
2023-05-11T20:48:32.352Z,5.07
2023-05-11T20:51:06.135Z,5.50
2023-05-11T20:53:33.624Z,3.78
2023-05-11T20:56:03.083Z,7.10
2023-05-11T20:58:31.852Z,4.93
2023-05-11T21:00:59.365Z,7.88
2023-05-11T21:03:27.722Z,4.10
2023-05-11T21:05:54.927Z,4.72
2023-05-11T21:08:21.937Z,3.95
2023-05-11T21:10:48.908Z,4.80
2023-05-11T21:13:16.070Z,4.88
2023-05-11T21:15:43.066Z,4.53
2023-05-11T21:18:10.707Z,4.28
2023-05-11T21:20:38.031Z,4.03
2023-05-11T21:23:05.112Z,4.07
2023-05-11T21:25:32.183Z,4.85
2023-05-11T21:28:00.925Z,5.45
2023-05-11T21:30:28.354Z,4.65
2023-05-11T21:32:55.397Z,4.10
2023-05-11T21:35:22.533Z,4.75
2023-05-11T21:37:50.071Z,6.07
2023-05-11T21:40:18.216Z,4.75
2023-05-11T21:42:45.673Z,6.07
2023-05-11T21:45:13.108Z,7.57
2023-05-11T21:47:40.174Z,4.05
2023-05-11T21:50:08.844Z,4.40
2023-05-11T21:52:37.437Z,5.00
2023-05-11T21:55:05.315Z,4.50
2023-05-11T21:57:32.451Z,4.35
2023-05-11T21:59:59.508Z,4.10
2023-05-11T22:02:28.204Z,3.53
2023-05-11T22:04:55.476Z,5.00
2023-05-11T22:07:23.402Z,4.03
2023-05-11T22:09:50.883Z,4.35
2023-05-11T22:12:18.149Z,4.47
2023-05-11T22:14:45.815Z,3.97
2023-05-11T22:17:12.859Z,4.22
2023-05-11T22:19:40.187Z,4.18
2023-05-11T22:22:07.167Z,3.45
2023-05-11T22:24:34.199Z,4.22
2023-05-11T22:27:01.348Z,4.07
2023-05-11T22:29:28.806Z,4.18
2023-05-11T22:31:55.832Z,5.28
2023-05-11T22:34:22.825Z,4.25
2023-05-11T22:36:50.165Z,4.22
2023-05-11T22:39:17.177Z,4.25
2023-05-11T22:41:44.337Z,4.32
2023-05-11T22:44:11.343Z,3.97
2023-05-11T22:46:38.330Z,4.13
2023-05-11T22:49:05.357Z,3.90
2023-05-11T22:51:32.538Z,4.55
2023-05-11T22:53:59.494Z,4.40
2023-05-11T22:56:26.604Z,4.20
2023-05-11T22:58:55.976Z,3.80
2023-05-11T23:01:23.049Z,4.55
2023-05-11T23:03:50.272Z,4.30
2023-05-11T23:06:17.492Z,3.42
2023-05-11T23:08:44.568Z,4.47
2023-05-11T23:11:12.056Z,4.10
2023-05-11T23:13:40.095Z,3.97
2023-05-11T23:16:08.610Z,4.00
2023-05-11T23:18:35.798Z,4.33
2023-05-11T23:21:02.890Z,4.30
2023-05-11T23:23:29.860Z,4.40
2023-05-11T23:25:56.912Z,4.47
2023-05-11T23:28:24.082Z,4.17
2023-05-11T23:30:51.525Z,4.60
2023-05-11T23:33:18.645Z,4.60
2023-05-11T23:35:46.952Z,5.45
2023-05-11T23:38:13.946Z,4.82
2023-05-11T23:40:41.124Z,5.10
2023-05-11T23:43:08.735Z,4.23
2023-05-11T23:45:35.872Z,4.25
2023-05-11T23:48:03.005Z,4.65
2023-05-11T23:50:30.105Z,4.50
2023-05-11T23:52:57.081Z,4.33
2023-05-11T23:55:24.373Z,4.50
2023-05-11T23:57:51.672Z,3.80
